Time;durP1;ratioP1;P1;durP2;ratioP2;P2;SDS_P1;SDS_P2;PMS_P1;PMS_P2;Temp;Humidity;BMP_temperature;BMP_pressure;BME280_temperature;BME280_humidity;BME280_pressure;Samples;Min_cycle;Max_cycle;Signal;HPM_P1;HPM_P2
2023/10/02 00:02:40;;;;;;;18.90;9.35;;;;;;;15.83;100.00;101635.94;5023536;28;20034;-68
2023/10/02 00:05:05;;;;;;;21.48;10.15;;;;;;;15.81;100.00;101623.81;5029659;28;20047;-67
2023/10/02 00:07:34;;;;;;;20.67;10.43;;;;;;;15.82;100.00;101630.78;5024140;28;20149;-67
2023/10/02 00:10:00;;;;;;;21.05;9.95;;;;;;;15.79;100.00;101623.00;5021109;28;20045;-68
2023/10/02 00:12:28;;;;;;;21.02;10.45;;;;;;;15.78;100.00;101624.72;5024312;28;20076;-68
2023/10/02 00:14:55;;;;;;;17.17;9.38;;;;;;;15.74;100.00;101631.72;5021580;28;20068;-67
2023/10/02 00:17:22;;;;;;;16.95;8.77;;;;;;;15.70;100.00;101635.25;5027776;28;20056;-68
2023/10/02 00:19:49;;;;;;;19.83;10.15;;;;;;;15.66;100.00;101633.59;5021597;28;20033;-68
2023/10/02 00:22:36;;;;;;;21.98;10.10;;;;;;;15.63;100.00;101630.19;5029661;28;20045;-68
2023/10/02 00:25:08;;;;;;;18.58;8.48;;;;;;;15.56;100.00;101626.78;5023575;28;20041;-68
2023/10/02 00:27:34;;;;;;;19.00;8.50;;;;;;;15.51;100.00;101631.19;5017139;28;20037;-68
2023/10/02 00:30:01;;;;;;;16.70;9.02;;;;;;;15.47;100.00;101632.13;5026418;28;20059;-68
2023/10/02 00:32:31;;;;;;;19.63;9.63;;;;;;;15.43;100.00;101630.47;5022086;28;20801;-68
2023/10/02 00:35:00;;;;;;;17.20;9.40;;;;;;;15.41;100.00;101629.59;5016243;28;20033;-68
2023/10/02 00:37:47;;;;;;;20.05;9.88;;;;;;;15.39;100.00;101633.13;5020601;28;20039;-68
2023/10/02 00:40:12;;;;;;;20.55;10.07;;;;;;;15.33;100.00;101628.84;5018229;28;20524;-68
2023/10/02 00:42:37;;;;;;;20.58;9.32;;;;;;;15.31;100.00;101629.75;5019913;28;20071;-68
2023/10/02 00:45:03;;;;;;;27.92;11.23;;;;;;;15.27;100.00;101626.34;5018882;28;20392;-67
2023/10/02 00:47:52;;;;;;;19.42;9.80;;;;;;;15.25;100.00;101630.72;5020514;28;20036;-68
2023/10/02 00:50:22;;;;;;;21.90;10.32;;;;;;;15.23;100.00;101632.47;5021597;28;20467;-68
2023/10/02 00:53:03;;;;;;;21.10;10.30;;;;;;;15.22;100.00;101625.53;5020211;28;20060;-68
2023/10/02 00:55:32;;;;;;;20.95;10.32;;;;;;;15.19;100.00;101629.06;5029207;28;20573;-68
2023/10/02 00:57:59;;;;;;;23.20;10.63;;;;;;;15.17;100.00;101628.19;5026354;28;20447;-68
2023/10/02 01:00:30;;;;;;;21.20;9.90;;;;;;;15.14;100.00;101620.41;5026498;28;20045;-68
2023/10/02 01:02:57;;;;;;;22.63;10.15;;;;;;;15.12;100.00;101621.34;5011827;28;20088;-68
2023/10/02 01:05:59;;;;;;;22.08;10.05;;;;;;;15.10;100.00;101623.09;5024124;28;20037;-68
2023/10/02 01:08:23;;;;;;;18.25;9.82;;;;;;;15.08;100.00;101624.84;5023258;28;20049;-68
2023/10/02 01:11:02;;;;;;;19.75;10.07;;;;;;;15.07;100.00;101624.00;5030434;28;20504;-68
2023/10/02 01:13:35;;;;;;;18.40;10.13;;;;;;;15.06;100.00;101616.19;5015568;28;20029;-68
2023/10/02 01:16:04;;;;;;;19.75;10.20;;;;;;;15.02;100.00;101609.31;5032278;28;20223;-68
2023/10/02 01:18:30;;;;;;;19.65;10.02;;;;;;;14.96;100.00;101610.25;5025087;28;20037;-68
2023/10/02 01:20:59;;;;;;;18.38;10.10;;;;;;;14.94;100.00;101612.03;5015956;28;20621;-67
2023/10/02 01:23:30;;;;;;;23.75;10.38;;;;;;;14.93;100.00;101619.88;5020124;28;20676;-68
2023/10/02 01:25:57;;;;;;;18.05;9.82;;;;;;;14.89;100.00;101620.78;5020283;28;20195;-68
2023/10/02 01:28:49;;;;;;;21.67;10.55;;;;;;;14.85;100.00;101627.75;5019958;28;20037;-68
2023/10/02 01:31:41;;;;;;;19.10;9.50;;;;;;;14.82;100.00;101622.59;5019025;28;20029;-68
2023/10/02 01:34:07;;;;;;;18.10;9.98;;;;;;;14.81;100.00;101615.63;5021094;28;20091;-68
2023/10/02 01:36:33;;;;;;;22.17;10.30;;;;;;;14.81;100.00;101622.63;5023092;28;20048;-68
2023/10/02 01:39:15;;;;;;;24.40;10.30;;;;;;;14.83;100.00;101613.91;5025659;28;20056;-68
2023/10/02 01:41:48;;;;;;;22.52;10.63;;;;;;;14.83;100.00;101626.06;5029869;28;20051;-68
2023/10/02 01:44:20;;;;;;;28.17;12.88;;;;;;;14.90;100.00;101622.50;5026086;28;20033;-68
2023/10/02 01:46:55;;;;;;;23.60;12.52;;;;;;;14.87;100.00;101622.53;5020517;28;20597;-68
2023/10/02 01:49:26;;;;;;;24.67;11.45;;;;;;;14.87;100.00;101622.53;5028439;28;20136;-68
2023/10/02 01:51:57;;;;;;;22.60;10.70;;;;;;;14.86;100.00;101621.69;5021942;28;20037;-68
2023/10/02 01:54:25;;;;;;;21.90;10.88;;;;;;;14.83;100.00;101619.09;5018710;28;20090;-68
2023/10/02 01:56:52;;;;;;;23.90;11.27;;;;;;;14.80;100.00;101621.75;5024913;28;20161;-68
2023/10/02 01:59:21;;;;;;;27.35;11.43;;;;;;;14.80;100.00;101623.47;5017677;28;20102;-68
2023/10/02 02:01:57;;;;;;;20.27;10.82;;;;;;;14.78;100.00;101620.88;5019400;28;20039;-68
2023/10/02 02:04:28;;;;;;;21.02;11.02;;;;;;;14.77;100.00;101615.72;5020219;28;20033;-68
2023/10/02 02:06:56;;;;;;;21.88;11.35;;;;;;;14.74;100.00;101613.16;5025678;28;20049;-60
2023/10/02 02:09:26;;;;;;;22.77;11.10;;;;;;;14.73;100.00;101611.41;5020667;28;20045;-60
2023/10/02 02:12:13;;;;;;;21.15;10.65;;;;;;;14.70;100.00;101607.13;5021357;28;20083;-60
2023/10/02 02:14:51;;;;;;;20.92;10.23;;;;;;;14.69;100.00;101613.22;5021054;28;20054;-60
2023/10/02 02:17:27;;;;;;;22.98;11.05;;;;;;;14.67;100.00;101609.75;5027809;28;20041;-60
2023/10/02 02:19:54;;;;;;;23.45;10.98;;;;;;;14.65;100.00;101611.53;5023851;28;20100;-60
2023/10/02 02:22:26;;;;;;;21.05;10.52;;;;;;;14.62;100.00;101612.41;5020624;28;20119;-60
2023/10/02 02:24:53;;;;;;;22.48;11.93;;;;;;;14.61;100.00;101610.69;5027082;28;20044;-60
2023/10/02 02:27:19;;;;;;;19.00;9.85;;;;;;;14.59;100.00;101612.44;5020868;28;20041;-60
2023/10/02 02:29:49;;;;;;;17.60;9.32;;;;;;;14.57;100.00;101603.78;5025809;28;20036;-60
2023/10/02 02:32:19;;;;;;;22.40;10.98;;;;;;;14.55;100.00;101607.28;5028562;28;20463;-60
2023/10/02 02:35:00;;;;;;;24.27;11.23;;;;;;;14.55;100.00;101609.88;5022717;28;20081;-60
2023/10/02 02:37:28;;;;;;;28.70;12.00;;;;;;;14.50;100.00;101604.75;5024057;28;20049;-60
2023/10/02 02:39:57;;;;;;;18.75;9.95;;;;;;;14.49;100.00;101610.81;5030535;28;20037;-60
2023/10/02 02:42:41;;;;;;;21.98;11.23;;;;;;;14.48;100.00;101621.25;5024105;28;20746;-60
2023/10/02 02:45:24;;;;;;;21.08;11.60;;;;;;;14.47;100.00;101609.97;5023497;28;20025;-60
2023/10/02 02:47:51;;;;;;;26.92;10.82;;;;;;;14.47;100.00;101609.13;5019584;28;20084;-60
2023/10/02 02:50:16;;;;;;;21.67;11.25;;;;;;;14.44;100.00;101610.03;5040659;28;20045;-60
2023/10/02 02:52:41;;;;;;;31.05;12.23;;;;;;;14.44;100.00;101604.81;5036740;28;20102;-60
2023/10/02 02:55:12;;;;;;;21.67;10.82;;;;;;;14.42;100.00;101608.31;5028623;28;20068;-60
2023/10/02 02:57:45;;;;;;;19.25;10.30;;;;;;;14.42;100.00;101610.91;5029654;28;20128;-60
2023/10/02 03:00:29;;;;;;;21.30;11.23;;;;;;;14.40;100.00;101605.72;5027029;28;20044;-60
2023/10/02 03:03:00;;;;;;;25.75;11.73;;;;;;;14.38;100.00;101610.09;5022853;28;20033;-60
2023/10/02 03:05:37;;;;;;;20.48;10.00;;;;;;;14.38;100.00;101609.22;5032487;28;20029;-60
2023/10/02 03:08:08;;;;;;;22.38;10.35;;;;;;;14.36;100.00;101606.63;5030125;28;20404;-59
2023/10/02 03:10:37;;;;;;;20.15;11.05;;;;;;;14.33;100.00;101595.38;5021241;28;20789;-60
2023/10/02 03:13:03;;;;;;;19.70;10.85;;;;;;;14.31;100.00;101600.56;5024207;28;20087;-60
2023/10/02 03:15:47;;;;;;;20.85;10.82;;;;;;;14.30;100.00;101598.88;5023400;28;20784;-60
2023/10/02 03:18:32;;;;;;;25.50;10.68;;;;;;;14.30;100.00;101600.59;5023573;28;20037;-60
2023/10/02 03:21:14;;;;;;;20.40;10.93;;;;;;;14.30;100.00;101598.88;5028958;28;20029;-60
2023/10/02 03:23:41;;;;;;;24.45;10.95;;;;;;;14.28;100.00;101597.13;5020042;28;20049;-68
2023/10/02 03:27:00;;;;;;;19.90;11.00;;;;;;;14.29;100.00;101593.66;5008830;28;20313;-68
2023/10/02 03:29:03;;;;;;;26.55;10.73;;;;;;;14.27;100.00;101592.84;5013245;28;20056;-68
2023/10/02 03:31:43;;;;;;;20.52;10.77;;;;;;;14.29;100.00;101589.34;5020931;28;20050;-68
2023/10/02 03:34:29;;;;;;;24.52;10.77;;;;;;;14.28;100.00;101591.94;5021100;28;20066;-68
2023/10/02 03:36:59;;;;;;;21.77;11.30;;;;;;;14.24;100.00;101580.72;5019704;28;20136;-68
2023/10/02 03:42:12;;;;;;;18.08;10.48;;;;;;;14.24;100.00;101579.88;5023402;28;20103;-68
2023/10/02 03:44:42;;;;;;;23.48;11.95;;;;;;;14.25;100.00;101577.22;5024085;28;20697;-69
2023/10/02 03:47:12;;;;;;;26.25;12.82;;;;;;;14.25;100.00;101573.75;5019723;28;20049;-68
2023/10/02 03:49:42;;;;;;;20.48;11.15;;;;;;;14.27;100.00;101579.84;5019896;28;20045;-68
2023/10/02 03:52:08;;;;;;;25.50;12.20;;;;;;;14.27;100.00;101575.50;5025529;28;20045;-68
2023/10/02 03:54:34;;;;;;;25.73;11.57;;;;;;;14.30;100.00;101570.25;5031376;28;20041;-68
2023/10/02 03:57:02;;;;;;;26.38;11.88;;;;;;;14.29;100.00;101572.88;5019255;28;20033;-68
2023/10/02 03:59:32;;;;;;;23.40;11.05;;;;;;;14.27;100.00;101572.03;5021802;28;21176;-68
2023/10/02 04:04:46;;;;;;;26.60;12.40;;;;;;;14.25;100.00;101571.16;5024239;28;20086;-69
2023/10/02 04:07:12;;;;;;;25.38;11.80;;;;;;;14.22;100.00;101571.22;5025456;28;20038;-68
2023/10/02 04:09:37;;;;;;;29.67;12.75;;;;;;;14.23;100.00;101566.00;5019150;28;20080;-68
2023/10/02 04:12:06;;;;;;;20.67;10.75;;;;;;;14.19;100.00;101566.06;5022973;28;20663;-67
2023/10/02 04:14:33;;;;;;;23.52;11.45;;;;;;;14.18;100.00;101569.53;5024643;28;20025;-62
2023/10/02 04:17:10;;;;;;;21.52;11.43;;;;;;;14.16;100.00;101571.28;5019421;28;20037;-62
2023/10/02 04:19:48;;;;;;;25.35;11.43;;;;;;;14.13;100.00;101572.16;5014636;28;20135;-62
2023/10/02 04:22:22;;;;;;;21.52;10.90;;;;;;;14.14;100.00;101560.88;5024625;28;20095;-62
2023/10/02 04:24:51;;;;;;;21.02;10.18;;;;;;;14.12;100.00;101562.66;5018178;28;20432;-62
2023/10/02 04:27:24;;;;;;;19.75;10.30;;;;;;;14.09;100.00;101560.94;5020388;28;20116;-62
2023/10/02 04:32:34;;;;;;;20.15;10.57;;;;;;;14.08;100.00;101574.81;5014549;28;20123;-62
2023/10/02 04:35:02;;;;;;;25.13;11.57;;;;;;;14.10;100.00;101565.25;5017164;28;20543;-62
2023/10/02 04:37:31;;;;;;;25.00;11.93;;;;;;;14.13;100.00;101564.34;5019621;28;20547;-62
2023/10/02 04:42:57;;;;;;;24.75;11.38;;;;;;;14.15;100.00;101564.34;5028663;28;20034;-62
2023/10/02 04:45:21;;;;;;;23.15;11.05;;;;;;;14.13;100.00;101554.81;5030302;28;20045;-62
2023/10/02 04:47:54;;;;;;;19.52;11.10;;;;;;;14.13;100.00;101553.97;5013149;28;20052;-62
2023/10/02 04:52:58;;;;;;;23.20;11.75;;;;;;;14.11;100.00;101555.72;5028463;28;20294;-62
2023/10/02 04:55:43;;;;;;;21.58;11.18;;;;;;;14.10;100.00;101559.19;5021285;28;20041;-62
2023/10/02 04:58:19;;;;;;;24.88;11.50;;;;;;;14.11;100.00;101554.00;5030793;28;20086;-62
2023/10/02 05:03:32;;;;;;;25.13;11.88;;;;;;;14.13;100.00;101557.41;5010427;28;20051;-62
2023/10/02 05:05:58;;;;;;;22.40;11.20;;;;;;;14.16;100.00;101556.53;5021717;28;20075;-62
2023/10/02 05:08:33;;;;;;;26.23;12.07;;;;;;;14.20;100.00;101554.75;5017891;28;20033;-62
2023/10/02 05:11:07;;;;;;;23.17;10.77;;;;;;;14.19;100.00;101553.88;5024383;28;20040;-62
2023/10/02 05:13:53;;;;;;;24.70;12.05;;;;;;;14.18;100.00;101553.94;5014878;28;20487;-63
2023/10/02 05:16:38;;;;;;;25.35;12.05;;;;;;;14.19;100.00;101551.28;5023057;28;20669;-60
2023/10/02 05:19:04;;;;;;;;;;;;;;;14.17;100.00;101558.25;5026898;28;20056;-60
2023/10/02 05:21:39;;;;;;;25.65;10.85;;;;;;;14.15;100.00;101557.41;5020030;28;19921;-60
2023/10/02 05:24:06;;;;;;;23.50;11.27;;;;;;;14.14;100.00;101555.69;5016588;28;20025;-62
2023/10/02 05:26:41;;;;;;;24.25;12.55;;;;;;;14.12;100.00;101552.25;5021595;28;20703;-62
2023/10/02 05:29:09;;;;;;;24.20;11.18;;;;;;;14.12;100.00;101549.66;5019656;28;20666;-63
2023/10/02 05:31:42;;;;;;;22.63;10.68;;;;;;;14.10;100.00;101553.97;5024561;28;20064;-62
2023/10/02 05:34:24;;;;;;;19.25;11.23;;;;;;;14.09;100.00;101554.88;5023567;28;20618;-60
2023/10/02 05:39:31;;;;;;;27.50;12.80;;;;;;;14.06;100.00;101553.19;5026027;28;20141;-60
2023/10/02 05:42:05;;;;;;;20.63;10.82;;;;;;;14.08;100.00;101551.41;5024812;28;20033;-60
2023/10/02 05:44:35;;;;;;;26.02;11.55;;;;;;;14.12;100.00;101565.25;5013220;28;20072;-60
2023/10/02 05:47:07;;;;;;;24.23;11.88;;;;;;;14.18;100.00;101552.19;5014018;28;20083;-62
2023/10/02 05:49:37;;;;;;;23.20;11.25;;;;;;;14.23;100.00;101558.19;5012431;28;20060;-61
2023/10/02 05:52:07;;;;;;;25.35;11.73;;;;;;;14.27;100.00;101556.44;5012357;28;20048;-62
2023/10/02 05:54:36;;;;;;;21.45;10.98;;;;;;;14.29;100.00;101558.13;5012848;28;20157;-62
2023/10/02 05:57:09;;;;;;;21.48;11.52;;;;;;;14.32;100.00;101565.03;5015915;28;20057;-62
2023/10/02 05:59:45;;;;;;;21.45;11.05;;;;;;;14.31;100.00;101561.56;5015970;28;20373;-62
2023/10/02 06:02:22;;;;;;;19.52;10.77;;;;;;;14.34;100.00;101560.66;5016069;28;20099;-62
2023/10/02 06:04:49;;;;;;;25.23;11.60;;;;;;;14.36;100.00;101565.00;5016938;28;20504;-63
2023/10/02 06:07:19;;;;;;;40.97;12.23;;;;;;;14.44;100.00;101572.72;5015458;28;20041;-63
2023/10/02 06:09:47;;;;;;;21.50;10.93;;;;;;;14.50;100.00;101580.47;5017394;28;20122;-63
2023/10/02 06:12:14;;;;;;;23.35;10.77;;;;;;;14.52;100.00;101576.09;5014842;28;20108;-63
2023/10/02 06:14:42;;;;;;;22.13;10.95;;;;;;;14.57;100.00;101584.75;5015206;28;20040;-61
2023/10/02 06:17:11;;;;;;;23.90;10.65;;;;;;;14.69;100.00;101586.31;5016564;28;20037;-62
2023/10/02 06:19:42;;;;;;;23.13;11.68;;;;;;;14.78;100.00;101583.63;5013818;28;20043;-61
2023/10/02 06:22:09;;;;;;;20.70;11.18;;;;;;;14.87;100.00;101583.50;5013483;28;20038;-62
2023/10/02 06:24:35;;;;;;;23.40;11.82;;;;;;;14.91;100.00;101585.16;5016660;28;20042;-62
2023/10/02 06:27:05;;;;;;;23.55;11.23;;;;;;;14.95;100.00;101584.25;5013661;28;20521;-62
2023/10/02 06:29:33;;;;;;;23.63;11.27;;;;;;;14.97;100.00;101575.53;5012489;28;20021;-62
2023/10/02 06:31:59;;;;;;;25.05;12.15;;;;;;;15.04;100.00;101587.59;5010379;28;20048;-62
2023/10/02 06:34:38;;;;;;;24.60;11.07;;;;;;;15.07;100.00;101584.94;5014443;28;20127;-62
2023/10/02 06:37:07;;;;;;;21.52;10.93;;;;;;;15.15;100.00;101590.91;5018902;28;20053;-62
2023/10/02 06:39:36;;;;;;;24.58;11.80;;;;;;;15.20;100.00;101583.00;5012255;28;20139;-62
2023/10/02 06:42:04;;;;;;;22.48;10.52;;;;;;;15.25;100.00;101591.66;5016319;28;20034;-62
2023/10/02 06:44:40;;;;;;;23.10;10.70;;;;;;;15.33;100.00;101587.19;5016389;28;20682;-62
2023/10/02 06:47:11;;;;;;;20.25;11.48;;;;;;;15.41;100.00;101594.88;5023082;28;20029;-62
2023/10/02 06:49:45;;;;;;;23.15;10.55;;;;;;;15.50;100.00;101592.13;5019111;28;20064;-63
2023/10/02 06:52:15;;;;;;;25.52;12.35;;;;;;;15.58;100.00;101585.91;5021144;28;20619;-62
2023/10/02 06:54:44;;;;;;;21.10;10.85;;;;;;;15.68;100.00;101590.13;5019281;28;20045;-62
2023/10/02 06:57:15;;;;;;;20.08;10.15;;;;;;;15.76;100.00;101590.03;5017420;28;22171;-62
2023/10/02 06:59:51;;;;;;;26.70;11.88;;;;;;;15.83;100.00;101594.22;5024421;28;20112;-63
2023/10/02 07:02:17;;;;;;;19.55;10.90;;;;;;;15.94;100.00;101594.06;5007565;28;20107;-60
2023/10/02 07:04:44;;;;;;;24.85;10.85;;;;;;;16.01;100.00;101595.66;5011513;28;20068;-59
2023/10/02 07:07:12;;;;;;;19.42;10.25;;;;;;;16.11;100.00;101592.00;5019284;28;20115;-59
2023/10/02 07:09:39;;;;;;;18.80;9.52;;;;;;;16.18;100.00;101589.25;5030606;28;20047;-59
2023/10/02 07:12:08;;;;;;;21.77;10.27;;;;;;;16.26;100.00;101591.75;5016989;28;20033;-61
2023/10/02 07:14:38;;;;;;;22.25;11.13;;;;;;;16.35;100.00;101593.31;5013112;28;20022;-62
2023/10/02 07:17:23;;;;;;;21.98;10.70;;;;;;;16.42;100.00;101595.75;5014453;28;20148;-63
2023/10/02 07:19:50;;;;;;;18.50;9.60;;;;;;;16.52;100.00;101586.88;5016716;28;20067;-63
2023/10/02 07:22:23;;;;;;;27.52;11.88;;;;;;;16.56;100.00;101590.28;5021621;28;20042;-63
2023/10/02 07:24:55;;;;;;;23.85;10.50;;;;;;;16.56;100.00;101585.06;5027810;28;20037;-67
2023/10/02 07:27:27;;;;;;;25.73;11.20;;;;;;;16.67;100.00;101585.72;5028038;28;20822;-68
2023/10/02 07:29:57;;;;;;;20.52;10.35;;;;;;;16.75;99.59;101584.66;5016852;28;20041;-68
2023/10/02 07:32:25;;;;;;;18.63;9.52;;;;;;;16.85;98.97;101574.91;5023662;28;20049;-69
2023/10/02 07:34:53;;;;;;;21.50;10.55;;;;;;;16.92;98.93;101571.25;5026547;28;20045;-68
2023/10/02 07:37:24;;;;;;;21.23;11.27;;;;;;;17.00;98.44;101574.59;5028261;28;20124;-69
2023/10/02 07:39:57;;;;;;;23.60;11.30;;;;;;;17.12;97.70;101576.94;5023817;28;20216;-68
2023/10/02 07:42:24;;;;;;;20.23;9.35;;;;;;;17.16;97.58;101568.13;5027962;28;20042;-68
2023/10/02 07:44:50;;;;;;;21.55;10.63;;;;;;;17.21;96.23;101566.28;5029845;28;20025;-67
2023/10/02 07:47:20;;;;;;;19.40;9.75;;;;;;;17.32;95.23;101566.88;5022268;28;20064;-67
2023/10/02 07:49:48;;;;;;;20.58;10.30;;;;;;;17.53;92.60;101562.91;5023830;28;20045;-67
2023/10/02 07:52:26;;;;;;;19.85;9.93;;;;;;;17.60;93.71;101568.84;5015342;28;20029;-67
2023/10/02 07:54:59;;;;;;;24.42;10.25;;;;;;;17.65;92.83;101567.84;5022135;28;20179;-67
2023/10/02 07:57:32;;;;;;;30.30;11.52;;;;;;;17.75;91.98;101568.47;5027409;28;20041;-66
2023/10/02 08:00:05;;;;;;;21.42;10.55;;;;;;;17.88;90.14;101560.28;5021524;28;20025;-67
2023/10/02 08:02:33;;;;;;;23.30;11.40;;;;;;;17.98;89.79;101566.16;5013742;28;20058;-68
2023/10/02 08:05:03;;;;;;;20.30;10.00;;;;;;;18.08;88.63;101567.63;5017543;28;20034;-67
2023/10/02 08:07:29;;;;;;;21.73;10.70;;;;;;;18.18;88.34;101566.47;5017409;28;20045;-68
2023/10/02 08:09:59;;;;;;;20.42;9.50;;;;;;;18.17;89.15;101567.38;5016816;28;20652;-67
2023/10/02 08:12:30;;;;;;;20.02;9.88;;;;;;;18.23;89.81;101566.34;5017234;28;20041;-67
2023/10/02 08:20:19;;;;;;;21.92;9.95;;;;;;;18.57;86.12;101551.44;5015825;28;20111;-67
2023/10/02 08:22:45;;;;;;;23.42;10.25;;;;;;;18.68;86.36;101559.81;5012170;28;20128;-67
2023/10/02 08:25:16;;;;;;;20.05;10.48;;;;;;;18.78;85.23;101550.81;5013737;28;20059;-67
2023/10/02 08:27:55;;;;;;;21.30;10.95;;;;;;;18.88;83.53;101536.53;5015298;28;20037;-67
2023/10/02 08:30:36;;;;;;;21.20;11.02;;;;;;;18.92;84.15;101546.03;5014186;28;20176;-67
2023/10/02 08:33:18;;;;;;;21.55;10.57;;;;;;;19.04;83.62;101536.94;5019592;28;20044;-66
2023/10/02 08:35:46;;;;;;;23.13;10.57;;;;;;;19.14;82.82;101537.53;5014696;28;20052;-68
2023/10/02 08:38:21;;;;;;;20.55;9.88;;;;;;;19.19;83.88;101543.47;5016777;28;20038;-68
2023/10/02 08:40:57;;;;;;;22.05;10.35;;;;;;;19.30;83.43;101541.34;5015571;28;20816;-67
2023/10/02 08:43:27;;;;;;;21.25;11.25;;;;;;;19.30;82.37;101529.13;5021993;28;20770;-67
2023/10/02 08:45:53;;;;;;;19.02;9.60;;;;;;;19.42;81.33;101526.09;5010181;28;20062;-67
2023/10/02 08:48:20;;;;;;;18.58;9.88;;;;;;;19.52;81.31;101529.28;5028429;28;20913;-67
2023/10/02 08:50:50;;;;;;;22.02;10.77;;;;;;;19.56;80.81;101510.75;5021533;28;20446;-67
2023/10/02 08:53:23;;;;;;;20.80;10.15;;;;;;;19.62;81.17;101521.03;5020776;28;20041;-67
2023/10/02 08:56:21;;;;;;;22.40;10.95;;;;;;;19.67;80.46;101513.03;5016376;28;20107;-68
2023/10/02 08:58:47;;;;;;;18.25;9.48;;;;;;;19.72;81.06;101518.13;5016062;28;20037;-68
2023/10/02 09:01:20;;;;;;;18.80;9.95;;;;;;;19.74;80.80;101517.16;5018138;28;20042;-68
2023/10/02 09:06:41;;;;;;;19.85;9.80;;;;;;;19.91;79.79;101509.59;5014039;28;20091;-68
2023/10/02 09:11:44;;;;;;;21.33;9.82;;;;;;;20.07;78.62;101505.50;5011069;28;20033;-60
2023/10/02 09:16:47;;;;;;;20.65;11.05;;;;;;;20.30;77.51;101498.59;5027563;28;20041;-60
2023/10/02 09:19:28;;;;;;;19.38;10.45;;;;;;;20.36;77.72;101501.00;5017486;28;20140;-60
2023/10/02 09:22:06;;;;;;;19.52;10.35;;;;;;;20.42;76.75;101487.63;5015879;28;20041;-60
2023/10/02 09:24:35;;;;;;;20.02;10.68;;;;;;;20.48;77.45;101503.16;5013037;28;20424;-60
2023/10/02 09:27:23;;;;;;;18.58;10.05;;;;;;;20.62;75.95;101483.34;5013644;28;20832;-60
2023/10/02 09:30:15;;;;;;;19.95;10.52;;;;;;;20.78;74.84;101470.47;5014573;28;20045;-61
2023/10/02 09:32:47;;;;;;;20.52;9.90;;;;;;;20.83;76.33;101489.56;5012035;28;20045;-60
2023/10/02 09:35:29;;;;;;;21.48;10.63;;;;;;;20.95;74.69;101460.16;5009970;28;20548;-60
2023/10/02 09:38:06;;;;;;;21.35;10.65;;;;;;;21.05;75.02;101479.03;5011944;28;20045;-62
2023/10/02 09:43:24;;;;;;;18.90;10.55;;;;;;;21.22;75.31;101482.69;5016445;28;20098;-60
2023/10/02 09:45:55;;;;;;;20.92;10.00;;;;;;;21.35;74.03;101461.16;5014388;28;20788;-60
2023/10/02 09:51:17;;;;;;;19.75;9.95;;;;;;;21.67;71.27;101424.69;5009107;28;20055;-60
2023/10/02 09:54:13;;;;;;;23.10;11.10;;;;;;;21.74;71.49;101431.41;5013566;28;20460;-60
2023/10/02 09:57:04;;;;;;;21.25;10.63;;;;;;;21.77;71.86;101440.94;5017505;28;20111;-60
2023/10/02 09:59:37;;;;;;;20.35;10.50;;;;;;;21.84;72.30;101452.91;5017871;28;20798;-60
2023/10/02 10:02:15;;;;;;;22.63;10.93;;;;;;;21.89;71.11;101432.50;5016545;28;20443;-60
2023/10/02 10:10:49;;;;;;;19.25;9.30;;;;;;;22.03;72.97;101453.78;5030051;28;20836;-60
2023/10/02 10:13:31;;;;;;;19.77;10.57;;;;;;;22.15;71.05;101421.66;5010111;28;20463;-60
2023/10/02 10:16:18;;;;;;;18.20;9.70;;;;;;;22.35;70.73;101418.13;5016828;28;20064;-60
2023/10/02 10:24:56;;;;;;;24.67;10.93;;;;;;;22.90;67.10;101361.84;5023192;28;21055;-60
2023/10/02 10:28:08;;;;;;;20.15;10.77;;;;;;;23.01;66.60;101371.84;5017073;28;20044;-60
2023/10/02 10:30:46;;;;;;;23.10;10.55;;;;;;;23.11;65.37;101352.00;5013099;28;20152;-60
2023/10/02 10:33:33;;;;;;;20.27;11.32;;;;;;;23.15;66.41;101358.84;5015886;28;20545;-60
2023/10/02 10:36:02;;;;;;;21.13;11.15;;;;;;;23.23;66.10;101359.31;5021364;28;20099;-60
2023/10/02 10:38:36;;;;;;;19.98;9.68;;;;;;;23.27;65.33;101349.47;5020210;28;20052;-60
2023/10/02 10:41:39;;;;;;;25.98;11.63;;;;;;;23.38;64.01;101326.00;5011847;28;20072;-60
2023/10/02 10:44:12;;;;;;;17.55;10.38;;;;;;;23.45;64.82;101353.78;4988905;28;20042;-60
2023/10/02 10:46:47;;;;;;;17.17;9.85;;;;;;;23.56;65.07;101353.22;5013663;28;20045;-60
2023/10/02 10:49:24;;;;;;;21.52;11.05;;;;;;;23.59;63.35;101330.16;5013787;28;21028;-60
2023/10/02 10:51:52;;;;;;;19.77;9.93;;;;;;;23.65;64.03;101340.41;5013116;28;20734;-60
2023/10/02 10:54:30;;;;;;;20.27;10.77;;;;;;;23.70;64.88;101358.63;5036323;28;20033;-60
2023/10/02 10:57:19;;;;;;;19.25;10.27;;;;;;;23.80;64.01;101339.56;5019238;28;20030;-60
2023/10/02 10:59:45;;;;;;;23.42;11.93;;;;;;;23.83;64.20;101349.13;5018076;28;20053;-60
2023/10/02 11:02:16;;;;;;;21.05;10.88;;;;;;;23.86;63.78;101339.25;5019307;28;20037;-60
2023/10/02 11:04:49;;;;;;;22.73;11.10;;;;;;;23.90;63.13;101331.97;5013697;28;20037;-60
2023/10/02 11:07:25;;;;;;;20.33;10.80;;;;;;;23.94;63.81;101331.78;5015938;28;20041;-60
2023/10/02 11:10:15;;;;;;;22.90;10.82;;;;;;;23.97;65.04;101357.16;5032183;28;20031;-60
2023/10/02 11:12:54;;;;;;;17.58;10.30;;;;;;;24.03;63.57;101333.06;5018942;28;20144;-60
2023/10/02 11:18:21;;;;;;;16.67;9.55;;;;;;;24.27;61.58;101289.44;5020237;28;20090;-60
2023/10/02 11:20:55;;;;;;;17.23;9.82;;;;;;;24.28;62.84;101314.94;5021569;28;20025;-60
2023/10/02 11:23:44;;;;;;;20.55;10.70;;;;;;;24.38;62.46;101299.38;5021920;28;20037;-60
2023/10/02 11:26:11;;;;;;;20.65;10.43;;;;;;;24.35;63.27;101313.63;5016868;28;20034;-60
2023/10/02 11:28:38;;;;;;;20.10;10.68;;;;;;;24.48;62.16;101290.84;5021088;28;20429;-60
2023/10/02 11:31:29;;;;;;;21.23;10.18;;;;;;;24.65;60.66;101270.50;5015666;28;20034;-60
2023/10/02 11:34:03;;;;;;;21.38;11.13;;;;;;;24.78;59.97;101261.81;5012760;28;21061;-60
2023/10/02 11:36:39;;;;;;;20.52;10.35;;;;;;;24.82;60.13;101265.94;5023412;28;20108;-60
2023/10/02 11:39:09;;;;;;;19.98;11.38;;;;;;;24.99;58.47;101227.94;5013995;28;20029;-60
2023/10/02 11:41:39;;;;;;;20.20;11.00;;;;;;;25.04;59.15;101247.00;5033519;28;20025;-60
2023/10/02 11:44:06;;;;;;;23.73;12.02;;;;;;;25.01;58.98;101252.50;5019746;28;20037;-63
2023/10/02 11:46:32;;;;;;;17.98;10.52;;;;;;;25.08;58.68;101241.44;5021041;28;20045;-63
2023/10/02 11:48:58;;;;;;;20.50;10.60;;;;;;;25.08;58.15;101224.72;5019187;28;20042;-68
2023/10/02 11:51:28;;;;;;;21.23;11.00;;;;;;;25.15;57.88;101218.09;5025597;28;20033;-60
2023/10/02 11:53:56;;;;;;;23.52;11.20;;;;;;;25.32;57.80;101214.44;5017504;28;20038;-64
2023/10/02 11:56:21;;;;;;;21.73;11.25;;;;;;;25.38;57.49;101203.47;5020511;28;20552;-64
2023/10/02 11:58:46;;;;;;;23.70;12.25;;;;;;;25.41;55.70;101184.78;5018375;28;20048;-64
2023/10/02 12:01:12;;;;;;;25.38;11.88;;;;;;;25.50;56.25;101192.13;5015884;28;20164;-63
2023/10/02 12:03:39;;;;;;;19.33;9.65;;;;;;;25.50;57.30;101211.47;5018922;28;20047;-63
2023/10/02 12:06:11;;;;;;;20.38;10.70;;;;;;;25.52;57.61;101212.25;5017663;28;20041;-63
2023/10/02 12:08:38;;;;;;;20.63;10.75;;;;;;;25.65;57.24;101204.38;5015477;28;20125;-63
2023/10/02 12:11:04;;;;;;;19.55;10.70;;;;;;;25.73;56.20;101183.56;5015314;28;20041;-64
2023/10/02 12:13:29;;;;;;;19.40;10.82;;;;;;;25.75;56.36;101178.16;5016146;28;20095;-64
2023/10/02 12:15:56;;;;;;;20.77;10.93;;;;;;;25.88;57.40;101198.47;5024547;28;20047;-64
2023/10/02 12:18:22;;;;;;;21.73;10.40;;;;;;;25.97;55.82;101160.78;5020144;28;20191;-64
2023/10/02 12:20:49;;;;;;;20.17;11.25;;;;;;;26.00;55.34;101159.72;5022535;28;20037;-64
2023/10/02 12:23:14;;;;;;;20.67;11.25;;;;;;;26.02;56.09;101177.22;5018158;28;20551;-63
2023/10/02 12:25:45;;;;;;;20.58;10.45;;;;;;;25.94;57.22;101181.31;5025841;28;20044;-64